createdAt,value
2019-01-29T00:01:58.787Z,86.24
2019-01-29T00:04:31.858Z,86.34
2019-01-29T00:07:05.737Z,86.00
2019-01-29T00:09:39.604Z,86.17
2019-01-29T00:12:14.505Z,86.27
2019-01-29T00:14:48.000Z,85.92
2019-01-29T00:17:20.845Z,86.04
2019-01-29T00:19:53.006Z,86.78
2019-01-29T00:22:33.386Z,86.73
2019-01-29T00:25:00.833Z,86.79
2019-01-29T00:27:33.719Z,87.24
2019-01-29T00:30:07.974Z,87.60
2019-01-29T00:32:41.663Z,88.26
2019-01-29T00:35:13.504Z,88.50
2019-01-29T00:37:46.805Z,88.61
2019-01-29T00:40:18.239Z,88.57
2019-01-29T00:42:52.611Z,88.52
2019-01-29T00:45:25.864Z,88.72
2019-01-29T00:48:01.347Z,88.87
2019-01-29T00:50:33.670Z,89.09
2019-01-29T00:53:07.787Z,89.21
2019-01-29T00:55:43.348Z,89.47
2019-01-29T00:58:16.394Z,89.41
2019-01-29T01:00:48.814Z,89.67
2019-01-29T01:03:21.071Z,89.52
2019-01-29T01:05:53.870Z,89.37
2019-01-29T01:08:25.220Z,88.53
2019-01-29T01:11:00.266Z,88.55
2019-01-29T01:13:33.627Z,88.71
2019-01-29T01:16:05.208Z,87.81
2019-01-29T01:18:37.857Z,88.19
2019-01-29T01:21:12.340Z,88.83
2019-01-29T01:23:46.051Z,88.67
2019-01-29T01:26:17.569Z,89.02
2019-01-29T01:28:51.046Z,88.50
2019-01-29T01:31:23.947Z,88.35
2019-01-29T01:33:58.005Z,89.11
2019-01-29T01:36:30.051Z,88.43
2019-01-29T01:39:04.308Z,88.37
2019-01-29T01:41:37.069Z,88.44
2019-01-29T01:44:08.350Z,88.18
2019-01-29T01:46:41.967Z,88.90
2019-01-29T01:49:16.769Z,88.55
2019-01-29T01:51:49.965Z,88.47
2019-01-29T01:54:24.078Z,88.65
2019-01-29T01:56:58.113Z,88.71
2019-01-29T01:59:33.643Z,89.34
2019-01-29T02:02:05.218Z,89.61
2019-01-29T02:04:39.130Z,89.47
2019-01-29T02:07:11.361Z,90.11
2019-01-29T02:09:44.188Z,89.60
2019-01-29T02:12:18.174Z,89.97
2019-01-29T02:14:49.442Z,90.31
2019-01-29T02:17:21.661Z,89.96
2019-01-29T02:19:54.280Z,89.98
2019-01-29T02:22:28.277Z,90.48
2019-01-29T02:25:05.530Z,90.44
2019-01-29T02:27:39.361Z,90.77
2019-01-29T02:30:14.206Z,91.28
2019-01-29T02:32:47.325Z,90.96
2019-01-29T02:35:18.620Z,90.67
2019-01-29T02:37:52.450Z,91.04
2019-01-29T02:40:26.958Z,91.00
2019-01-29T02:42:58.286Z,91.32
2019-01-29T02:45:30.714Z,91.41
2019-01-29T02:48:03.518Z,91.33
2019-01-29T02:50:36.352Z,92.25
2019-01-29T02:53:18.061Z,91.53
2019-01-29T02:55:43.347Z,91.56
2019-01-29T02:58:20.308Z,91.44
2019-01-29T03:00:51.956Z,91.86
2019-01-29T03:03:23.253Z,91.83
2019-01-29T03:05:56.324Z,92.21
2019-01-29T03:08:30.348Z,91.52
2019-01-29T03:11:04.633Z,92.58
2019-01-29T03:13:38.447Z,92.90
2019-01-29T03:16:11.324Z,93.60
2019-01-29T03:18:44.385Z,93.93
2019-01-29T03:21:17.718Z,94.25
2019-01-29T03:23:51.537Z,94.29
2019-01-29T03:26:24.545Z,95.20
2019-01-29T03:28:56.512Z,95.24
2019-01-29T03:31:30.075Z,95.93
2019-01-29T03:34:01.567Z,96.23
2019-01-29T03:36:36.120Z,95.44
2019-01-29T03:39:09.550Z,95.64
2019-01-29T03:41:42.466Z,95.31
2019-01-29T03:44:14.667Z,95.42
2019-01-29T03:46:47.220Z,95.77
2019-01-29T03:49:18.469Z,96.09
2019-01-29T03:51:49.720Z,96.44
2019-01-29T03:54:21.661Z,96.88
2019-01-29T03:56:54.646Z,96.66
2019-01-29T03:59:27.514Z,95.68
2019-01-29T04:01:59.488Z,95.59
2019-01-29T04:04:30.734Z,95.38
2019-01-29T04:07:04.672Z,95.02
2019-01-29T04:09:39.271Z,95.44
2019-01-29T04:12:12.769Z,95.05
2019-01-29T04:14:46.813Z,94.80
2019-01-29T04:17:18.262Z,94.47
2019-01-29T04:19:52.458Z,93.73
2019-01-29T04:22:26.590Z,93.31
2019-01-29T04:25:00.364Z,93.08
2019-01-29T04:27:33.924Z,93.48
2019-01-29T04:30:06.729Z,93.59
2019-01-29T04:32:38.774Z,93.97
2019-01-29T04:35:13.617Z,94.01
2019-01-29T04:37:46.852Z,93.63
2019-01-29T04:40:19.739Z,93.64
2019-01-29T04:42:55.356Z,93.77
2019-01-29T04:45:27.756Z,93.40
2019-01-29T04:48:03.335Z,93.22
2019-01-29T04:50:36.504Z,93.05
2019-01-29T04:53:09.898Z,92.74
2019-01-29T04:55:41.186Z,93.09
2019-01-29T04:58:15.055Z,93.40
2019-01-29T05:00:50.620Z,94.54
2019-01-29T05:03:23.099Z,94.41
2019-01-29T05:05:54.381Z,94.73
2019-01-29T05:08:28.050Z,94.62
2019-01-29T05:11:02.087Z,95.03
2019-01-29T05:13:34.392Z,95.99
2019-01-29T05:16:07.053Z,94.25
2019-01-29T05:18:41.164Z,93.65
2019-01-29T05:21:15.200Z,93.67
2019-01-29T05:23:49.789Z,94.02
2019-01-29T05:26:24.172Z,92.12
2019-01-29T05:28:59.186Z,92.23
2019-01-29T05:31:31.038Z,92.24
2019-01-29T05:34:08.591Z,91.22
2019-01-29T05:36:43.738Z,91.43
2019-01-29T05:39:16.953Z,90.80
2019-01-29T05:41:51.760Z,90.40
2019-01-29T05:44:24.323Z,90.59
2019-01-29T05:46:55.808Z,90.82
2019-01-29T05:49:27.666Z,90.51
2019-01-29T05:52:02.769Z,89.14
2019-01-29T05:54:35.951Z,89.11
2019-01-29T05:57:09.362Z,88.30
2019-01-29T05:59:45.982Z,88.47
2019-01-29T06:02:17.214Z,88.87
2019-01-29T06:04:48.434Z,87.32
2019-01-29T06:07:22.323Z,87.35
2019-01-29T06:09:56.568Z,86.93
2019-01-29T06:12:30.186Z,87.37
2019-01-29T06:15:04.812Z,87.27
2019-01-29T06:17:38.110Z,86.50
2019-01-29T06:20:15.390Z,86.38
2019-01-29T06:22:49.325Z,86.41
2019-01-29T06:25:21.283Z,85.15
2019-01-29T06:27:56.397Z,85.15
2019-01-29T06:30:28.444Z,85.63
2019-01-29T06:32:59.726Z,85.29
2019-01-29T06:35:33.403Z,84.82
2019-01-29T06:38:04.676Z,84.13
2019-01-29T06:40:39.230Z,84.43
2019-01-29T06:43:11.406Z,85.05
2019-01-29T06:45:46.976Z,84.29
2019-01-29T06:48:18.282Z,85.25
2019-01-29T06:51:00.300Z,84.04
2019-01-29T06:53:33.539Z,83.79
2019-01-29T06:56:07.574Z,83.38
2019-01-29T06:58:38.873Z,84.27
2019-01-29T07:01:12.553Z,84.01
2019-01-29T07:03:48.053Z,84.49
2019-01-29T07:06:21.491Z,83.89
2019-01-29T07:08:52.813Z,85.19
2019-01-29T07:11:24.498Z,84.85
2019-01-29T07:13:56.503Z,85.59
2019-01-29T07:16:48.207Z,84.56
2019-01-29T07:19:40.507Z,84.64
2019-01-29T07:22:15.404Z,84.28
2019-01-29T07:24:49.641Z,83.53
2019-01-29T07:27:22.738Z,82.99
2019-01-29T07:29:56.631Z,83.10
2019-01-29T07:32:30.681Z,82.45
2019-01-29T07:35:05.050Z,82.25
2019-01-29T07:37:38.606Z,82.52
2019-01-29T07:40:10.524Z,82.92
2019-01-29T07:42:43.706Z,83.00
2019-01-29T07:45:18.042Z,83.07
2019-01-29T07:47:52.858Z,83.82
2019-01-29T07:50:26.540Z,83.94
2019-01-29T07:53:01.336Z,83.44
2019-01-29T07:55:34.489Z,83.25
2019-01-29T07:58:07.746Z,82.56
2019-01-29T08:00:42.195Z,82.56
2019-01-29T08:03:14.772Z,82.31
2019-01-29T08:05:48.158Z,81.91
2019-01-29T08:08:20.118Z,81.75
2019-01-29T08:10:53.094Z,80.48
2019-01-29T08:13:26.532Z,80.82
2019-01-29T08:15:58.812Z,80.53
2019-01-29T08:18:31.926Z,81.05
2019-01-29T08:21:03.913Z,81.27
2019-01-29T08:23:39.602Z,81.42
2019-01-29T08:26:12.031Z,81.82
2019-01-29T08:28:43.297Z,82.08
2019-01-29T08:31:17.577Z,81.92
2019-01-29T08:33:50.824Z,81.40
2019-01-29T08:36:22.155Z,79.86
2019-01-29T08:38:56.004Z,80.07
2019-01-29T08:41:27.781Z,80.35
2019-01-29T08:44:00.231Z,79.82
2019-01-29T08:46:32.234Z,78.90
2019-01-29T08:49:06.197Z,79.34
2019-01-29T08:51:39.904Z,79.00
2019-01-29T08:54:14.049Z,79.14
2019-01-29T08:56:47.941Z,78.31
2019-01-29T08:59:23.437Z,78.53
2019-01-29T09:01:54.954Z,78.83
2019-01-29T09:04:26.598Z,78.42
2019-01-29T09:06:57.907Z,79.15
2019-01-29T09:09:30.989Z,78.79
2019-01-29T09:12:05.005Z,79.63
2019-01-29T09:14:39.041Z,78.80
2019-01-29T09:17:11.195Z,78.66
2019-01-29T09:19:42.471Z,78.33
2019-01-29T09:22:16.200Z,79.42
2019-01-29T09:24:49.286Z,78.90
2019-01-29T09:27:20.551Z,79.14
2019-01-29T09:29:51.792Z,79.76
2019-01-29T09:32:25.103Z,80.46
2019-01-29T09:34:59.072Z,79.75
2019-01-29T09:37:33.201Z,78.84
2019-01-29T09:40:09.627Z,79.40
2019-01-29T09:42:41.131Z,79.79
2019-01-29T09:45:14.364Z,79.07
2019-01-29T09:47:46.206Z,78.47
2019-01-29T09:50:22.075Z,78.20
2019-01-29T09:52:57.104Z,78.10
2019-01-29T09:55:29.769Z,77.79
2019-01-29T09:58:02.315Z,78.16
2019-01-29T10:00:36.058Z,77.48
2019-01-29T10:03:07.641Z,76.48
2019-01-29T10:05:42.291Z,75.55
2019-01-29T10:08:15.359Z,76.88
2019-01-29T10:10:48.481Z,76.52
2019-01-29T10:13:21.357Z,77.58
2019-01-29T10:15:54.076Z,76.20
2019-01-29T10:18:25.354Z,76.43
2019-01-29T10:20:59.227Z,76.63
2019-01-29T10:23:33.418Z,75.98
2019-01-29T10:26:07.466Z,76.17
2019-01-29T10:28:41.353Z,76.63
2019-01-29T10:31:14.482Z,75.98
2019-01-29T10:33:45.875Z,76.33
2019-01-29T10:36:18.056Z,76.71
2019-01-29T10:38:50.390Z,76.33
2019-01-29T10:41:26.070Z,76.93
2019-01-29T10:43:58.426Z,75.53
2019-01-29T10:46:34.064Z,74.91
2019-01-29T10:49:06.526Z,74.76
2019-01-29T10:51:42.008Z,74.15
2019-01-29T10:54:14.494Z,74.62
2019-01-29T10:56:45.785Z,74.90
2019-01-29T10:59:18.301Z,75.22
2019-01-29T11:01:52.530Z,75.51
2019-01-29T11:04:24.506Z,76.60
2019-01-29T11:06:57.527Z,76.72
2019-01-29T11:09:30.486Z,77.90
2019-01-29T11:12:02.603Z,78.49
2019-01-29T11:14:36.638Z,79.38
2019-01-29T11:17:10.553Z,79.51
2019-01-29T11:19:46.156Z,79.91
2019-01-29T11:22:18.471Z,80.55
2019-01-29T11:24:49.828Z,81.18
2019-01-29T11:27:23.755Z,81.62
2019-01-29T11:29:57.756Z,81.82
2019-01-29T11:32:31.639Z,82.32
2019-01-29T11:35:03.527Z,82.55
2019-01-29T11:37:36.833Z,82.96
2019-01-29T11:40:13.319Z,83.38
2019-01-29T11:42:44.792Z,83.60
2019-01-29T11:45:35.587Z,84.23
2019-01-29T11:48:09.824Z,85.35
2019-01-29T11:50:43.691Z,86.15
2019-01-29T11:53:15.242Z,86.23
2019-01-29T11:55:46.484Z,86.42
2019-01-29T11:58:18.350Z,86.29
2019-01-29T12:01:01.034Z,87.13
2019-01-29T12:03:33.841Z,86.18
2019-01-29T12:06:05.434Z,85.86
2019-01-29T12:08:36.703Z,84.59
2019-01-29T12:11:09.916Z,82.39
2019-01-29T12:13:43.716Z,80.08
2019-01-29T12:16:19.546Z,79.58
2019-01-29T12:18:53.467Z,78.85
2019-01-29T12:21:24.815Z,77.99
2019-01-29T12:23:56.710Z,78.07
2019-01-29T12:26:30.805Z,78.53
2019-01-29T12:29:05.900Z,79.38
2019-01-29T12:31:37.842Z,81.42
2019-01-29T12:34:11.829Z,83.57
2019-01-29T12:36:46.027Z,85.53
2019-01-29T12:39:17.370Z,87.81
2019-01-29T12:41:48.675Z,89.36
2019-01-29T12:44:21.886Z,91.13
2019-01-29T12:46:56.032Z,92.27
2019-01-29T12:49:30.066Z,93.48
2019-01-29T12:52:10.712Z,94.40
2019-01-29T12:54:44.021Z,95.09
2019-01-29T12:57:18.619Z,95.57
2019-01-29T12:59:52.147Z,95.81
2019-01-29T13:02:25.116Z,95.79
2019-01-29T13:04:57.070Z,95.70
2019-01-29T13:07:28.323Z,94.84
2019-01-29T13:09:59.804Z,93.81
2019-01-29T13:12:33.024Z,92.74
2019-01-29T13:15:07.437Z,91.91
2019-01-29T13:17:41.150Z,91.15
2019-01-29T13:20:15.171Z,90.51
2019-01-29T13:22:48.044Z,90.10
2019-01-29T13:25:19.688Z,90.25
2019-01-29T13:27:50.987Z,89.83
2019-01-29T13:30:28.114Z,90.14
2019-01-29T13:32:59.365Z,91.79
2019-01-29T13:35:35.403Z,92.61
2019-01-29T13:38:07.986Z,94.01
2019-01-29T13:40:40.985Z,95.29
2019-01-29T13:43:13.163Z,96.77
2019-01-29T13:45:47.381Z,97.85
2019-01-29T13:48:19.713Z,98.09
2019-01-29T13:50:57.222Z,97.74
2019-01-29T13:53:32.799Z,97.96
2019-01-29T13:56:05.514Z,98.39
2019-01-29T13:58:39.538Z,99.10
2019-01-29T14:01:15.230Z,99.32
2019-01-29T14:03:49.074Z,99.16
2019-01-29T14:06:21.719Z,99.52
2019-01-29T14:08:57.577Z,99.33
2019-01-29T14:11:29.356Z,98.90
2019-01-29T14:14:03.338Z,98.45
2019-01-29T14:16:37.377Z,97.83
2019-01-29T14:19:11.497Z,96.90
2019-01-29T14:21:45.388Z,97.01
2019-01-29T14:24:18.696Z,97.52
2019-01-29T14:26:50.378Z,97.58
2019-01-29T14:29:22.605Z,97.19
2019-01-29T14:31:55.566Z,97.93
2019-01-29T14:34:28.530Z,97.90
2019-01-29T14:37:00.583Z,98.08
2019-01-29T14:40:07.679Z,98.32
2019-01-29T14:42:38.924Z,98.52
2019-01-29T14:45:19.855Z,98.75
2019-01-29T14:47:52.335Z,98.89
2019-01-29T14:50:24.799Z,98.93
2019-01-29T14:52:57.677Z,98.83
2019-01-29T14:55:31.860Z,98.54
2019-01-29T14:58:05.801Z,98.52
2019-01-29T15:00:39.993Z,98.32
2019-01-29T15:03:13.548Z,98.73
2019-01-29T15:05:44.840Z,98.87
2019-01-29T15:08:20.339Z,99.11
2019-01-29T15:10:52.714Z,99.06
2019-01-29T15:13:25.807Z,99.15
2019-01-29T15:16:04.417Z,99.29
2019-01-29T15:18:43.586Z,99.33
2019-01-29T15:21:18.082Z,99.53
2019-01-29T15:23:51.431Z,99.98
2019-01-29T15:26:22.688Z,100.00
2019-01-29T15:28:58.221Z,100.00
2019-01-29T15:31:30.889Z,100.00
2019-01-29T15:34:05.048Z,100.00
2019-01-29T15:36:40.444Z,100.00
2019-01-29T15:39:13.199Z,100.00
2019-01-29T15:41:46.892Z,100.00
2019-01-29T15:44:19.059Z,100.00
2019-01-29T15:46:50.870Z,100.00
2019-01-29T15:49:23.975Z,100.00
2019-01-29T15:51:59.922Z,100.00
2019-01-29T15:54:32.111Z,100.00
2019-01-29T15:57:03.892Z,100.00
2019-01-29T15:59:42.767Z,100.00
2019-01-29T16:02:09.061Z,100.00
2019-01-29T16:04:42.881Z,100.00
2019-01-29T16:07:15.058Z,100.00
2019-01-29T16:09:48.056Z,100.00
2019-01-29T16:12:19.300Z,100.00
2019-01-29T16:14:52.892Z,100.00
2019-01-29T16:17:25.047Z,100.00
2019-01-29T16:19:58.140Z,100.00
2019-01-29T16:22:29.406Z,100.00
2019-01-29T16:25:02.926Z,100.00
2019-01-29T16:27:38.565Z,100.00
2019-01-29T16:30:14.710Z,100.00
2019-01-29T16:32:48.143Z,100.00
2019-01-29T16:35:23.821Z,100.00
2019-01-29T16:37:56.161Z,100.00
2019-01-29T16:40:32.329Z,100.00
2019-01-29T16:43:04.215Z,100.00
2019-01-29T16:45:39.118Z,100.00
2019-01-29T16:48:13.907Z,100.00
2019-01-29T16:50:46.113Z,100.00
2019-01-29T16:53:19.017Z,100.00
2019-01-29T16:55:51.167Z,100.00
2019-01-29T16:58:25.207Z,100.00
2019-01-29T17:01:00.971Z,100.00
2019-01-29T17:03:33.201Z,100.00
2019-01-29T17:06:08.811Z,100.00
2019-01-29T17:08:42.778Z,100.00
2019-01-29T17:11:16.447Z,100.00
2019-01-29T17:13:48.264Z,100.00
2019-01-29T17:16:19.694Z,100.00
2019-01-29T17:18:51.355Z,100.00
2019-01-29T17:21:26.484Z,100.00
2019-01-29T17:23:59.211Z,100.00
2019-01-29T17:26:32.115Z,100.00
2019-01-29T17:29:06.424Z,100.00
2019-01-29T17:31:38.370Z,100.00
2019-01-29T17:34:12.321Z,100.00
2019-01-29T17:36:44.585Z,100.00
2019-01-29T17:39:17.457Z,100.00
2019-01-29T17:41:51.707Z,100.00
2019-01-29T17:44:25.574Z,100.00
2019-01-29T17:46:59.401Z,100.00
2019-01-29T17:49:31.446Z,100.00
2019-01-29T17:52:04.488Z,100.00
2019-01-29T17:54:36.178Z,100.00
2019-01-29T17:57:09.412Z,100.00
2019-01-29T17:59:43.513Z,100.00
2019-01-29T18:02:15.570Z,100.00
2019-01-29T18:04:50.473Z,100.00
2019-01-29T18:07:22.860Z,100.00
2019-01-29T18:09:56.916Z,100.00
2019-01-29T18:12:30.542Z,100.00
2019-01-29T18:15:01.892Z,100.00
2019-01-29T18:17:35.665Z,100.00
2019-01-29T18:20:11.324Z,100.00
2019-01-29T18:22:43.556Z,100.00
2019-01-29T18:25:17.604Z,100.00
2019-01-29T18:28:00.599Z,100.00
2019-01-29T18:30:31.056Z,100.00
2019-01-29T18:33:02.677Z,100.00
2019-01-29T18:35:36.668Z,100.00
2019-01-29T18:38:12.257Z,100.00
2019-01-29T18:40:50.368Z,100.00
2019-01-29T18:43:22.802Z,100.00
2019-01-29T18:45:54.616Z,100.00
2019-01-29T18:48:26.126Z,100.00
2019-01-29T18:50:59.808Z,100.00
2019-01-29T18:53:35.355Z,100.00
2019-01-29T18:56:07.775Z,100.00
2019-01-29T18:58:40.934Z,100.00
2019-01-29T19:01:12.778Z,100.00
2019-01-29T19:03:49.696Z,100.00
2019-01-29T19:06:24.296Z,100.00
2019-01-29T19:08:57.872Z,100.00
2019-01-29T19:11:31.895Z,100.00
2019-01-29T19:14:05.881Z,100.00
2019-01-29T19:16:39.922Z,100.00
2019-01-29T19:19:14.773Z,100.00
2019-01-29T19:21:47.930Z,100.00
2019-01-29T19:24:19.432Z,100.00
2019-01-29T19:26:53.055Z,100.00
2019-01-29T19:29:25.837Z,100.00
2019-01-29T19:31:57.289Z,100.00
2019-01-29T19:34:31.190Z,100.00
2019-01-29T19:37:04.965Z,100.00
2019-01-29T19:39:39.068Z,100.00
2019-01-29T19:42:13.056Z,100.00
2019-01-29T19:44:46.957Z,100.00
2019-01-29T19:47:19.211Z,100.00
2019-01-29T19:49:52.049Z,100.00
2019-01-29T19:52:26.893Z,100.00
2019-01-29T19:55:00.280Z,100.00
2019-01-29T19:57:34.132Z,100.00
2019-01-29T20:00:15.027Z,100.00
2019-01-29T20:02:48.207Z,100.00
2019-01-29T20:05:20.306Z,100.00
2019-01-29T20:07:52.116Z,100.00
2019-01-29T20:10:27.780Z,100.00
2019-01-29T20:13:01.687Z,100.00
2019-01-29T20:15:34.189Z,100.00
2019-01-29T20:18:08.045Z,100.00
2019-01-29T20:20:42.296Z,100.00
2019-01-29T20:23:16.143Z,100.00
2019-01-29T20:25:50.086Z,100.00
2019-01-29T20:28:23.029Z,100.00
2019-01-29T20:30:55.107Z,100.00
2019-01-29T20:33:29.259Z,100.00
2019-01-29T20:36:03.270Z,100.00
2019-01-29T20:38:37.183Z,100.00
2019-01-29T20:41:11.283Z,100.00
2019-01-29T20:43:45.241Z,100.00
2019-01-29T20:46:21.851Z,100.00
2019-01-29T20:48:55.122Z,100.00
2019-01-29T20:51:26.876Z,100.00
2019-01-29T20:54:01.191Z,100.00
2019-01-29T20:56:34.354Z,100.00
2019-01-29T20:59:08.445Z,100.00
2019-01-29T21:01:45.743Z,100.00
2019-01-29T21:04:17.107Z,100.00
2019-01-29T21:06:51.887Z,100.00
2019-01-29T21:09:25.316Z,100.00
2019-01-29T21:11:58.411Z,100.00
2019-01-29T21:14:32.428Z,100.00
2019-01-29T21:17:06.291Z,100.00
2019-01-29T21:19:38.062Z,100.00
2019-01-29T21:22:11.405Z,100.00
2019-01-29T21:24:43.354Z,100.00
2019-01-29T21:27:16.418Z,100.00
2019-01-29T21:29:50.453Z,100.00
2019-01-29T21:32:22.392Z,100.00
2019-01-29T21:34:55.521Z,100.00
2019-01-29T21:37:28.482Z,100.00
2019-01-29T21:40:00.355Z,100.00
2019-01-29T21:42:31.704Z,100.00
2019-01-29T21:45:06.865Z,100.00
2019-01-29T21:47:39.390Z,100.00
2019-01-29T21:50:21.739Z,100.00
2019-01-29T21:52:53.753Z,100.00
2019-01-29T21:55:27.771Z,100.00
2019-01-29T21:58:01.515Z,100.00
2019-01-29T22:00:44.329Z,100.00
2019-01-29T22:03:18.948Z,100.00
2019-01-29T22:05:52.600Z,100.00
2019-01-29T22:08:25.687Z,100.00
2019-01-29T22:10:56.999Z,100.00
2019-01-29T22:13:28.378Z,100.00
2019-01-29T22:16:01.669Z,100.00
2019-01-29T22:18:35.489Z,100.00
2019-01-29T22:21:12.069Z,100.00
2019-01-29T22:23:43.672Z,100.00
2019-01-29T22:26:19.248Z,100.00
2019-01-29T22:28:51.765Z,100.00
2019-01-29T22:31:25.684Z,100.00
2019-01-29T22:34:01.211Z,100.00
2019-01-29T22:36:33.681Z,100.00
2019-01-29T22:39:08.901Z,100.00
2019-01-29T22:41:41.584Z,100.00
2019-01-29T22:44:15.720Z,100.00
2019-01-29T22:46:48.672Z,100.00
2019-01-29T22:49:19.994Z,100.00
2019-01-29T22:51:51.610Z,100.00
2019-01-29T22:54:23.720Z,100.00
2019-01-29T22:56:56.665Z,100.00
2019-01-29T22:59:33.475Z,100.00
2019-01-29T23:02:03.607Z,100.00
2019-01-29T23:04:39.859Z,100.00
2019-01-29T23:07:31.829Z,100.00
2019-01-29T23:10:08.784Z,100.00
2019-01-29T23:12:41.889Z,100.00
2019-01-29T23:15:15.990Z,100.00
2019-01-29T23:17:47.799Z,100.00
2019-01-29T23:20:19.736Z,100.00
2019-01-29T23:22:51.567Z,100.00
2019-01-29T23:25:22.912Z,100.00
2019-01-29T23:27:54.359Z,100.00
2019-01-29T23:30:26.190Z,100.00
2019-01-29T23:32:58.916Z,100.00
2019-01-29T23:35:31.801Z,100.00
2019-01-29T23:38:03.855Z,100.00
2019-01-29T23:40:37.761Z,100.00
2019-01-29T23:43:09.219Z,100.00
2019-01-29T23:45:44.731Z,100.00
2019-01-29T23:48:16.851Z,100.00
2019-01-29T23:50:50.838Z,100.00
2019-01-29T23:53:22.134Z,100.00
2019-01-29T23:55:56.006Z,100.00
2019-01-29T23:58:29.985Z,100.00
